Time;durP1;ratioP1;P1;durP2;ratioP2;P2;SDS_P1;SDS_P2;PMS_P1;PMS_P2;Temp;Humidity;BMP_temperature;BMP_pressure;BME280_temperature;BME280_humidity;BME280_pressure;Samples;Min_cycle;Max_cycle;Signal;HPM_P1;HPM_P2
2022/12/25 00:00:13;;;;;;;9.88;6.22;;;9.90;99.90;;;;;;5055838;28;20290;-76
2022/12/25 00:02:42;;;;;;;11.05;7.50;;;9.90;99.90;;;;;;5054786;28;20220;-76
2022/12/25 00:05:09;;;;;;;10.43;6.50;;;9.90;99.90;;;;;;5051607;28;20288;-76
2022/12/25 00:07:36;;;;;;;7.18;5.70;;;9.90;99.90;;;;;;5054894;28;20312;-76
2022/12/25 00:10:04;;;;;;;9.70;6.80;;;9.90;99.90;;;;;;5054838;28;20224;-76
2022/12/25 00:12:32;;;;;;;11.05;6.50;;;9.90;99.90;;;;;;5055908;28;20262;-76
2022/12/25 00:14:59;;;;;;;9.85;6.60;;;9.80;99.90;;;;;;5054657;28;20227;-79
2022/12/25 00:17:26;;;;;;;7.25;5.75;;;9.80;99.90;;;;;;5058401;28;20478;-76
2022/12/25 00:19:54;;;;;;;10.93;6.60;;;9.80;99.90;;;;;;5058599;28;20308;-76
2022/12/25 00:22:21;;;;;;;12.60;6.78;;;9.80;99.90;;;;;;5056236;28;20278;-76
2022/12/25 00:24:49;;;;;;;8.75;6.53;;;9.80;99.90;;;;;;5056049;28;20244;-76
2022/12/25 00:27:17;;;;;;;6.97;6.03;;;9.80;99.90;;;;;;5056885;28;20338;-77
2022/12/25 00:29:44;;;;;;;7.90;5.90;;;9.70;99.90;;;;;;5055014;28;20221;-76
2022/12/25 00:32:11;;;;;;;10.30;6.60;;;9.70;99.90;;;;;;5054024;28;20613;-76
2022/12/25 00:34:38;;;;;;;14.38;8.30;;;9.70;99.90;;;;;;5051527;28;20212;-76
2022/12/25 00:37:08;;;;;;;9.07;6.25;;;9.70;99.90;;;;;;5050923;28;20286;-75
2022/12/25 00:39:35;;;;;;;13.15;6.80;;;9.60;99.90;;;;;;5051592;28;20229;-81
2022/12/25 00:42:22;;;;;;;9.68;6.75;;;9.70;99.90;;;;;;5051190;28;20224;-80
2022/12/25 00:44:50;;;;;;;10.88;7.32;;;9.60;99.90;;;;;;5050327;28;20609;-80
2022/12/25 00:47:18;;;;;;;12.73;7.40;;;9.60;99.90;;;;;;5055135;28;20274;-80
2022/12/25 00:49:45;;;;;;;11.20;6.65;;;9.60;99.90;;;;;;5043060;28;20244;-79
2022/12/25 00:52:14;;;;;;;12.68;6.45;;;9.50;99.90;;;;;;5055040;28;20237;-80
2022/12/25 00:54:41;;;;;;;9.43;6.68;;;9.50;99.90;;;;;;5055028;28;20679;-79
2022/12/25 00:57:08;;;;;;;12.65;6.60;;;9.50;99.90;;;;;;5052391;28;20611;-80
2022/12/25 00:59:35;;;;;;;10.02;6.60;;;9.50;99.90;;;;;;5046322;28;20233;-79
2022/12/25 01:04:43;;;;;;;10.23;6.63;;;9.40;99.90;;;;;;5052068;28;20255;-80
2022/12/25 01:07:10;;;;;;;10.70;6.32;;;9.40;99.90;;;;;;5054516;28;20311;-80
2022/12/25 01:12:24;;;;;;;12.52;7.47;;;9.40;99.90;;;;;;5052842;28;20402;-76
2022/12/25 01:14:51;;;;;;;14.85;6.88;;;9.40;99.90;;;;;;5054455;28;20316;-76
2022/12/25 01:17:18;;;;;;;12.27;6.75;;;9.40;99.90;;;;;;5055441;28;20312;-80
2022/12/25 01:19:45;;;;;;;19.08;7.40;;;9.30;99.90;;;;;;5054138;28;20634;-78
2022/12/25 01:22:12;;;;;;;11.52;7.95;;;9.30;99.90;;;;;;5036607;28;20222;-80
2022/12/25 01:24:40;;;;;;;9.25;8.35;;;9.30;99.90;;;;;;5050072;28;20251;-76
2022/12/25 01:27:07;;;;;;;12.30;6.53;;;9.30;99.90;;;;;;5054717;28;20304;-80
2022/12/25 01:29:34;;;;;;;15.07;8.25;;;9.30;99.90;;;;;;5050192;28;20246;-80
2022/12/25 01:32:01;;;;;;;8.30;6.75;;;9.30;99.90;;;;;;5054740;28;20545;-80
2022/12/25 01:34:28;;;;;;;13.90;7.82;;;9.20;99.90;;;;;;5042040;28;20789;-80
2022/12/25 01:36:55;;;;;;;11.00;7.72;;;9.20;99.90;;;;;;5054510;28;20617;-76
2022/12/25 01:39:22;;;;;;;10.60;7.55;;;9.20;99.90;;;;;;5054565;28;20225;-80
2022/12/25 01:41:52;;;;;;;16.85;7.93;;;9.20;99.90;;;;;;5054164;28;20252;-79
2022/12/25 01:44:56;;;;;;;10.50;7.68;;;9.20;99.90;;;;;;5054155;28;20330;-77
2022/12/25 01:47:23;;;;;;;11.00;7.93;;;9.20;99.90;;;;;;5054529;28;20274;-77
2022/12/25 01:49:51;;;;;;;10.75;8.55;;;9.20;99.90;;;;;;5053614;28;20363;-76
2022/12/25 01:52:22;;;;;;;12.50;8.25;;;9.20;99.90;;;;;;5054011;28;20315;-76
2022/12/25 01:54:52;;;;;;;10.10;7.93;;;9.20;99.90;;;;;;5054247;28;20229;-76
2022/12/25 01:57:25;;;;;;;14.20;8.40;;;9.10;99.90;;;;;;5047699;28;20225;-76
2022/12/25 01:59:53;;;;;;;15.88;7.60;;;9.10;99.90;;;;;;5048184;28;20225;-75
2022/12/25 02:02:21;;;;;;;11.02;7.35;;;9.10;99.90;;;;;;5053432;28;20232;-79
2022/12/25 02:04:53;;;;;;;11.10;8.13;;;9.10;99.90;;;;;;5054038;28;20308;-79
2022/12/25 02:07:22;;;;;;;10.13;7.22;;;9.10;99.90;;;;;;5044822;28;20312;-76
2022/12/25 02:09:50;;;;;;;13.57;6.57;;;9.10;99.90;;;;;;5054260;28;20274;-76
2022/12/25 02:12:22;;;;;;;12.77;7.80;;;9.10;99.90;;;;;;5053487;28;20228;-77
2022/12/25 02:14:50;;;;;;;11.48;7.45;;;9.10;99.90;;;;;;5053849;28;20228;-76
2022/12/25 02:17:24;;;;;;;15.20;7.80;;;9.10;99.90;;;;;;5053538;28;20220;-76
2022/12/25 02:20:04;;;;;;;12.05;8.85;;;9.10;99.90;;;;;;5053788;28;20316;-75
2022/12/25 02:22:43;;;;;;;11.38;8.60;;;9.10;99.90;;;;;;5042300;28;20221;-76
2022/12/25 02:25:28;;;;;;;8.82;7.45;;;9.10;99.90;;;;;;5047536;28;20274;-77
2022/12/25 02:28:10;;;;;;;17.77;8.20;;;9.00;99.90;;;;;;5054073;28;20307;-78
2022/12/25 02:30:46;;;;;;;12.82;7.88;;;9.00;99.90;;;;;;5053563;28;20513;-80
2022/12/25 02:36:10;;;;;;;16.35;8.20;;;9.00;99.90;;;;;;5053129;28;20227;-76
2022/12/25 02:39:56;;;;;;;11.88;7.10;;;9.00;99.90;;;;;;5053493;28;20229;-77
2022/12/25 02:41:29;;;;;;;12.43;8.40;;;9.00;99.90;;;;;;5040786;28;20560;-77
2022/12/25 03:06:45;;;;;;;9.85;7.72;;;8.70;99.90;;;;;;5052491;28;20239;-80
2022/12/25 03:12:12;;;;;;;15.00;9.00;;;8.70;99.90;;;;;;5052834;28;20311;-77
2022/12/25 03:17:25;;;;;;;13.05;8.80;;;8.70;99.90;;;;;;5052233;28;20239;-80
2022/12/25 03:28:07;;;;;;;14.02;7.47;;;8.60;99.90;;;;;;5053608;28;20286;-80
2022/12/25 03:33:35;;;;;;;13.05;8.20;;;8.60;99.90;;;;;;5033943;28;20574;-80
2022/12/25 03:36:11;;;;;;;14.43;8.60;;;8.60;99.90;;;;;;5050311;28;20291;-77
2022/12/25 04:37:31;;;;;;;16.92;9.73;;;8.20;99.90;;;;;;5055238;28;20307;-77
2022/12/25 04:39:59;;;;;;;16.88;11.55;;;8.20;99.90;;;;;;5055388;28;20220;-76
2022/12/25 04:42:26;;;;;;;24.05;11.38;;;8.10;99.90;;;;;;5055641;28;20231;-77
2022/12/25 04:44:53;;;;;;;16.98;9.93;;;8.10;99.90;;;;;;5050912;28;20251;-76
2022/12/25 04:47:20;;;;;;;15.10;9.30;;;8.10;99.90;;;;;;5055347;28;20371;-76
2022/12/25 04:49:47;;;;;;;17.55;9.65;;;8.10;99.90;;;;;;5054900;28;20278;-76
2022/12/25 04:52:14;;;;;;;15.30;9.80;;;8.10;99.90;;;;;;5055171;28;20296;-80
2022/12/25 04:54:41;;;;;;;15.57;9.57;;;8.10;99.90;;;;;;5054696;28;20255;-79
2022/12/25 04:57:10;;;;;;;10.70;9.38;;;8.00;99.90;;;;;;5055432;28;20232;-76
2022/12/25 04:59:37;;;;;;;10.52;9.02;;;8.00;99.90;;;;;;5044674;28;20287;-76
2022/12/25 05:02:04;;;;;;;18.92;9.88;;;8.00;99.90;;;;;;5055805;28;20225;-80
2022/12/25 05:04:31;;;;;;;18.55;9.68;;;8.00;99.90;;;;;;5054732;28;20229;-80
2022/12/25 05:06:58;;;;;;;15.57;9.85;;;8.00;99.90;;;;;;5054521;28;20248;-76
2022/12/25 05:09:25;;;;;;;14.30;9.77;;;8.00;99.90;;;;;;5054855;28;20302;-80
2022/12/25 05:11:53;;;;;;;16.00;9.20;;;7.90;99.90;;;;;;5054865;28;20224;-80
2022/12/25 05:14:21;;;;;;;9.88;8.68;;;7.90;99.90;;;;;;5053326;28;20303;-80
2022/12/25 05:16:48;;;;;;;17.80;8.65;;;7.90;99.90;;;;;;5054510;28;20308;-76
2022/12/25 05:19:15;;;;;;;15.52;9.98;;;7.90;99.90;;;;;;5053683;28;20306;-75
2022/12/25 05:21:41;;;;;;;13.23;8.80;;;7.90;99.90;;;;;;5050243;28;20228;-76
2022/12/25 05:24:08;;;;;;;12.65;9.05;;;7.90;99.90;;;;;;5047915;28;20221;-76
2022/12/25 05:26:35;;;;;;;14.18;8.77;;;7.90;99.90;;;;;;5054293;28;20307;-77
2022/12/25 05:29:02;;;;;;;14.75;9.30;;;7.80;99.90;;;;;;5054382;28;20267;-80
2022/12/25 05:31:30;;;;;;;15.38;7.80;;;7.80;99.90;;;;;;5055367;28;20300;-79
2022/12/25 05:33:57;;;;;;;18.42;8.52;;;7.80;99.90;;;;;;5051710;28;20225;-80
2022/12/25 05:36:24;;;;;;;12.88;7.72;;;7.80;99.90;;;;;;5054152;28;20249;-80
2022/12/25 05:38:52;;;;;;;9.52;8.40;;;7.80;99.90;;;;;;5053858;28;20225;-80
2022/12/25 05:41:19;;;;;;;13.23;9.05;;;7.70;99.90;;;;;;5054747;28;20689;-80
2022/12/25 05:43:46;;;;;;;14.88;8.88;;;7.70;99.90;;;;;;5053318;28;20316;-79
2022/12/25 05:46:14;;;;;;;11.25;7.85;;;7.70;99.90;;;;;;5054453;28;20562;-77
2022/12/25 05:48:42;;;;;;;12.55;7.20;;;7.70;99.90;;;;;;5053400;28;20332;-77
2022/12/25 05:51:11;;;;;;;15.43;8.32;;;7.70;99.90;;;;;;5054622;28;20694;-76
2022/12/25 05:53:39;;;;;;;17.52;9.15;;;7.60;99.90;;;;;;5053737;28;20286;-79
2022/12/25 05:56:08;;;;;;;12.98;8.77;;;7.70;99.90;;;;;;5052396;28;20607;-79
2022/12/25 05:58:37;;;;;;;11.07;7.80;;;7.60;99.90;;;;;;5053864;28;20384;-77
2022/12/25 06:01:11;;;;;;;12.05;8.43;;;7.60;99.90;;;;;;5054570;28;20291;-79
2022/12/25 06:03:38;;;;;;;9.57;7.50;;;7.60;99.90;;;;;;5053870;28;20303;-77
2022/12/25 06:06:07;;;;;;;16.25;9.10;;;7.60;99.90;;;;;;5053742;28;20252;-79
2022/12/25 06:08:35;;;;;;;12.27;7.18;;;7.60;99.90;;;;;;5054410;28;20282;-80
2022/12/25 06:11:04;;;;;;;13.02;8.60;;;7.60;99.90;;;;;;5053544;28;20319;-76
2022/12/25 06:13:32;;;;;;;13.68;7.80;;;7.60;99.90;;;;;;5054026;28;20224;-76
2022/12/25 06:15:59;;;;;;;15.10;8.65;;;7.60;99.90;;;;;;5053254;28;20236;-79
2022/12/25 06:18:26;;;;;;;12.15;7.60;;;7.60;99.90;;;;;;5053395;28;20232;-79
2022/12/25 06:20:53;;;;;;;12.35;8.43;;;7.60;99.90;;;;;;5053380;28;20228;-77
2022/12/25 06:23:21;;;;;;;13.45;8.98;;;7.60;99.90;;;;;;5053239;28;20296;-79
2022/12/25 06:25:52;;;;;;;13.18;8.25;;;7.60;99.90;;;;;;5052842;28;20278;-79
2022/12/25 06:28:19;;;;;;;13.57;9.35;;;7.60;99.90;;;;;;5054071;28;20216;-80
2022/12/25 06:30:49;;;;;;;12.35;7.65;;;7.60;99.90;;;;;;5052858;28;20679;-79
2022/12/25 06:33:16;;;;;;;13.20;8.73;;;7.60;99.90;;;;;;5054031;28;20578;-80
2022/12/25 06:35:43;;;;;;;16.27;8.82;;;7.60;99.90;;;;;;5053332;28;20224;-79
2022/12/25 06:38:10;;;;;;;11.30;8.10;;;7.50;99.90;;;;;;5053888;28;20249;-77
2022/12/25 06:40:38;;;;;;;15.98;8.30;;;7.50;99.90;;;;;;5052811;28;20308;-80
2022/12/25 06:43:05;;;;;;;14.73;8.57;;;7.60;99.90;;;;;;5053635;28;20349;-76
2022/12/25 06:45:35;;;;;;;19.13;8.98;;;7.50;99.90;;;;;;5053726;28;20248;-80
2022/12/25 06:48:02;;;;;;;18.13;9.68;;;7.50;99.90;;;;;;5053260;28;20244;-80
2022/12/25 06:50:29;;;;;;;13.05;8.27;;;7.50;99.90;;;;;;5053400;28;20579;-77
2022/12/25 06:52:56;;;;;;;12.18;8.23;;;7.40;99.90;;;;;;5053263;28;20575;-77
2022/12/25 06:55:24;;;;;;;10.98;8.23;;;7.40;99.90;;;;;;5043319;28;20220;-78
2022/12/25 06:57:52;;;;;;;12.68;8.38;;;7.40;99.90;;;;;;5052653;28;20221;-77
2022/12/25 07:00:20;;;;;;;15.55;8.63;;;7.40;99.90;;;;;;5053576;28;20232;-77
2022/12/25 07:02:49;;;;;;;17.55;7.35;;;7.40;99.90;;;;;;5053047;28;20248;-77
2022/12/25 07:05:16;;;;;;;11.85;8.27;;;7.40;99.90;;;;;;5053282;28;20278;-81
2022/12/25 07:07:43;;;;;;;21.83;9.27;;;7.30;99.90;;;;;;5053502;28;20241;-76
2022/12/25 07:10:11;;;;;;;9.98;6.93;;;7.40;99.90;;;;;;5052778;28;20227;-80
2022/12/25 07:12:38;;;;;;;11.38;7.20;;;7.30;99.90;;;;;;5053123;28;20258;-77
2022/12/25 07:15:08;;;;;;;16.15;8.65;;;7.30;99.90;;;;;;5052389;28;20541;-77
2022/12/25 07:17:35;;;;;;;15.82;7.20;;;7.30;99.90;;;;;;5053085;28;20225;-80
2022/12/25 07:20:03;;;;;;;12.45;9.27;;;7.40;99.90;;;;;;5052552;28;20229;-80
2022/12/25 07:22:30;;;;;;;11.45;8.40;;;7.30;99.90;;;;;;5053255;28;20274;-80
2022/12/25 07:24:57;;;;;;;15.15;9.20;;;7.30;99.90;;;;;;5052270;28;20248;-77
2022/12/25 07:27:24;;;;;;;14.55;9.23;;;7.30;99.90;;;;;;5052916;28;20660;-77
2022/12/25 07:29:51;;;;;;;11.45;8.57;;;7.30;99.90;;;;;;5051930;28;20229;-78
2022/12/25 07:32:19;;;;;;;16.08;9.55;;;7.30;99.90;;;;;;5052975;28;20225;-80
2022/12/25 07:34:46;;;;;;;11.73;8.55;;;7.20;99.90;;;;;;5053441;28;20227;-80
2022/12/25 07:37:13;;;;;;;11.70;8.10;;;7.20;99.90;;;;;;5052497;28;20278;-76
2022/12/25 07:39:40;;;;;;;15.88;8.35;;;7.20;99.90;;;;;;5052287;28;20311;-80
2022/12/25 07:42:07;;;;;;;12.45;8.40;;;7.20;99.90;;;;;;5052475;28;20627;-80
2022/12/25 07:44:38;;;;;;;11.27;9.98;;;7.20;99.90;;;;;;5052738;28;20224;-77
2022/12/25 07:47:05;;;;;;;13.55;7.93;;;7.20;99.90;;;;;;5051986;28;20228;-77
2022/12/25 07:49:34;;;;;;;11.70;7.43;;;7.10;99.90;;;;;;5052334;28;20320;-77
2022/12/25 07:52:04;;;;;;;10.38;8.77;;;7.10;99.90;;;;;;5051039;28;20282;-81
2022/12/25 07:54:31;;;;;;;14.75;7.90;;;7.10;99.90;;;;;;5052503;28;20240;-80
2022/12/25 07:57:01;;;;;;;13.90;9.93;;;7.10;99.90;;;;;;5052183;28;20694;-80
2022/12/25 07:59:28;;;;;;;13.38;8.10;;;7.10;99.90;;;;;;5052410;28;20240;-80
2022/12/25 08:01:55;;;;;;;13.45;7.28;;;7.00;99.90;;;;;;5040254;28;20262;-79
2022/12/25 08:04:22;;;;;;;14.45;8.27;;;7.00;99.90;;;;;;5052103;28;20224;-79
2022/12/25 08:06:50;;;;;;;13.32;8.48;;;7.10;99.90;;;;;;5052095;28;20255;-80
2022/12/25 08:09:17;;;;;;;15.55;9.63;;;7.00;99.90;;;;;;5051418;28;20307;-80
2022/12/25 08:11:46;;;;;;;9.85;7.43;;;7.00;99.90;;;;;;5044388;28;20619;-80
2022/12/25 08:14:14;;;;;;;16.85;8.73;;;7.00;99.90;;;;;;5051655;28;20282;-76
2022/12/25 08:16:41;;;;;;;15.77;9.30;;;7.00;99.90;;;;;;5052599;28;20263;-77
2022/12/25 08:19:09;;;;;;;11.95;9.20;;;7.00;99.90;;;;;;5050654;28;20234;-76
2022/12/25 08:21:38;;;;;;;15.57;7.75;;;7.00;99.90;;;;;;5043244;28;20217;-77
2022/12/25 08:24:07;;;;;;;10.55;7.97;;;7.00;99.90;;;;;;5051354;28;20401;-77
2022/12/25 08:26:34;;;;;;;10.43;7.10;;;7.00;99.90;;;;;;5052508;28;20224;-77
2022/12/25 08:29:01;;;;;;;10.15;8.02;;;7.00;99.90;;;;;;5051239;28;20655;-78
2022/12/25 08:31:29;;;;;;;11.23;7.60;;;7.10;99.90;;;;;;5051690;28;20291;-77
2022/12/25 08:33:58;;;;;;;14.13;8.00;;;7.10;99.90;;;;;;5041745;28;20312;-80
2022/12/25 08:36:26;;;;;;;12.98;7.80;;;7.10;99.90;;;;;;5050893;28;20724;-80
2022/12/25 08:38:53;;;;;;;11.48;7.65;;;7.20;99.90;;;;;;5051542;28;20217;-80
2022/12/25 08:41:22;;;;;;;12.15;8.80;;;7.20;99.90;;;;;;5051764;28;20229;-77
2022/12/25 08:43:49;;;;;;;12.13;7.60;;;7.20;99.90;;;;;;5051917;28;20312;-77
2022/12/25 08:46:16;;;;;;;9.95;7.55;;;7.20;99.90;;;;;;5051484;28;20224;-77
2022/12/25 08:48:44;;;;;;;14.23;10.02;;;7.20;99.90;;;;;;5051495;28;20286;-77
2022/12/25 08:51:14;;;;;;;11.05;7.53;;;7.20;99.90;;;;;;5051236;28;20256;-78
2022/12/25 08:53:41;;;;;;;13.90;8.85;;;7.20;99.90;;;;;;5051950;28;20224;-77
2022/12/25 08:56:09;;;;;;;14.57;8.05;;;7.10;99.90;;;;;;5051515;28;20408;-77
2022/12/25 08:58:40;;;;;;;10.95;7.45;;;7.10;99.90;;;;;;5051708;28;20224;-80
2022/12/25 09:01:08;;;;;;;10.50;8.32;;;7.10;99.90;;;;;;5051060;28;20247;-79
2022/12/25 09:03:35;;;;;;;11.15;8.38;;;7.10;99.90;;;;;;5053161;28;20224;-79
2022/12/25 09:06:04;;;;;;;14.50;7.60;;;7.10;99.90;;;;;;5055482;28;20221;-76
2022/12/25 09:08:31;;;;;;;15.43;9.65;;;7.10;99.90;;;;;;5054953;28;20248;-77
2022/12/25 09:11:04;;;;;;;17.10;10.02;;;7.10;99.90;;;;;;5055603;28;20619;-77
2022/12/25 09:13:32;;;;;;;13.45;9.60;;;7.20;99.90;;;;;;5053721;28;20323;-81
2022/12/25 09:16:04;;;;;;;11.95;8.55;;;7.20;99.90;;;;;;5055140;28;20617;-80
2022/12/25 09:18:31;;;;;;;13.10;9.88;;;7.20;99.90;;;;;;5052886;28;20224;-77
2022/12/25 09:21:02;;;;;;;18.60;10.98;;;7.20;99.90;;;;;;5055455;28;20304;-77
2022/12/25 09:23:30;;;;;;;17.38;12.00;;;7.20;99.90;;;;;;5054346;28;20667;-77
2022/12/25 09:25:59;;;;;;;16.85;10.93;;;7.20;99.90;;;;;;5055393;28;20477;-80
2022/12/25 09:28:26;;;;;;;24.52;12.68;;;7.20;99.90;;;;;;5054192;28;20235;-76
2022/12/25 09:30:53;;;;;;;18.25;11.40;;;7.20;99.90;;;;;;5055036;28;20252;-80
2022/12/25 09:33:22;;;;;;;21.67;12.68;;;7.20;99.90;;;;;;5054462;28;20231;-77
2022/12/25 09:35:54;;;;;;;24.45;12.90;;;7.20;99.90;;;;;;5055206;28;20243;-80
2022/12/25 09:38:25;;;;;;;17.92;11.90;;;7.20;99.90;;;;;;5054369;28;20248;-80
2022/12/25 09:40:59;;;;;;;14.45;9.85;;;7.30;99.90;;;;;;5054908;28;20613;-80
2022/12/25 09:43:28;;;;;;;14.15;9.32;;;7.30;99.90;;;;;;5054265;28;20225;-80
2022/12/25 09:45:57;;;;;;;20.88;12.35;;;7.30;99.90;;;;;;5055055;28;20295;-80
2022/12/25 09:48:28;;;;;;;18.48;10.48;;;7.30;99.90;;;;;;5053640;28;20235;-80
2022/12/25 09:51:02;;;;;;;18.60;10.60;;;7.40;99.90;;;;;;5054890;28;20270;-80
2022/12/25 09:53:39;;;;;;;18.08;12.02;;;7.30;99.90;;;;;;5053475;28;20221;-78
2022/12/25 09:56:12;;;;;;;18.95;10.82;;;7.40;99.90;;;;;;5054625;28;20286;-80
2022/12/25 09:58:43;;;;;;;21.27;11.70;;;7.40;99.90;;;;;;5054079;28;20231;-80
2022/12/25 10:01:18;;;;;;;18.50;9.90;;;7.40;99.90;;;;;;5054734;28;20231;-77
2022/12/25 10:04:05;;;;;;;27.42;13.00;;;7.40;99.90;;;;;;5054431;28;20228;-77
2022/12/25 10:06:58;;;;;;;17.05;11.68;;;7.40;99.90;;;;;;5054026;28;20516;-78
2022/12/25 10:09:51;;;;;;;14.80;11.30;;;7.40;99.90;;;;;;5053762;28;20239;-77
2022/12/25 10:12:35;;;;;;;16.40;12.15;;;7.40;99.90;;;;;;5042573;28;20220;-78
2022/12/25 10:15:29;;;;;;;18.65;11.90;;;7.50;99.90;;;;;;5053499;28;20221;-77
2022/12/25 10:18:17;;;;;;;20.08;13.35;;;7.50;99.90;;;;;;5053754;28;20295;-78
2022/12/25 10:20:52;;;;;;;18.98;12.38;;;7.50;99.90;;;;;;5053697;28;20316;-77
2022/12/25 10:23:22;;;;;;;17.65;11.43;;;7.60;99.90;;;;;;5054071;28;20234;-77
2022/12/25 10:25:51;;;;;;;21.35;13.25;;;7.60;99.90;;;;;;5053710;28;20684;-76
2022/12/25 10:28:26;;;;;;;17.58;11.85;;;7.60;99.90;;;;;;5053760;28;20312;-76
2022/12/25 10:30:55;;;;;;;22.85;13.43;;;7.70;99.90;;;;;;5052668;28;20307;-76
2022/12/25 10:33:23;;;;;;;18.00;12.68;;;7.60;99.90;;;;;;5054030;28;20267;-77
2022/12/25 10:35:51;;;;;;;20.05;13.38;;;7.60;99.90;;;;;;5052981;28;20228;-76
2022/12/25 10:38:19;;;;;;;19.88;14.70;;;7.60;99.90;;;;;;5053807;28;20659;-75
2022/12/25 10:41:03;;;;;;;21.70;14.45;;;7.60;99.90;;;;;;5053172;28;20298;-76
2022/12/25 10:43:37;;;;;;;29.35;16.67;;;7.60;99.90;;;;;;5053692;28;20225;-77
2022/12/25 10:46:11;;;;;;;28.38;15.35;;;7.60;99.90;;;;;;5053341;28;20240;-77
2022/12/25 10:48:42;;;;;;;25.88;15.73;;;7.70;99.90;;;;;;5053469;28;20228;-76
2022/12/25 10:51:11;;;;;;;23.25;15.10;;;7.70;99.90;;;;;;5043317;28;20232;-76
2022/12/25 10:53:41;;;;;;;20.50;14.35;;;7.70;99.90;;;;;;5052672;28;20228;-76
2022/12/25 10:56:17;;;;;;;25.60;15.18;;;7.60;99.90;;;;;;5052900;28;20228;-76
2022/12/25 10:58:45;;;;;;;21.73;16.67;;;7.60;99.90;;;;;;5053630;28;20255;-76
2022/12/25 11:01:12;;;;;;;22.00;13.40;;;7.50;99.90;;;;;;5041568;28;20239;-77
2022/12/25 11:03:42;;;;;;;19.58;13.32;;;7.40;99.90;;;;;;5053863;28;20228;-77
2022/12/25 11:06:23;;;;;;;23.33;14.43;;;7.50;99.90;;;;;;5052451;28;20229;-76
2022/12/25 11:08:53;;;;;;;21.63;13.93;;;7.40;99.90;;;;;;5053106;28;20228;-76
2022/12/25 11:11:20;;;;;;;22.13;14.60;;;7.40;99.90;;;;;;5053242;28;20993;-77
2022/12/25 11:13:50;;;;;;;21.55;15.20;;;7.40;99.90;;;;;;5052993;28;20606;-77
2022/12/25 11:16:28;;;;;;;23.10;14.93;;;7.50;99.90;;;;;;5052508;28;20303;-77
2022/12/25 11:18:56;;;;;;;18.95;12.68;;;7.50;99.90;;;;;;5052891;28;20236;-79
2022/12/25 11:21:30;;;;;;;21.58;13.30;;;7.40;99.90;;;;;;5053480;28;20300;-79
2022/12/25 11:23:59;;;;;;;26.65;14.40;;;7.50;99.90;;;;;;5053025;28;20236;-80
2022/12/25 11:26:27;;;;;;;20.13;14.00;;;7.50;99.90;;;;;;5042864;28;20259;-80
2022/12/25 11:28:55;;;;;;;21.55;14.38;;;7.50;99.90;;;;;;5053352;28;20248;-77
2022/12/25 11:31:25;;;;;;;18.67;12.82;;;7.50;99.90;;;;;;5052408;28;20233;-78
2022/12/25 11:33:56;;;;;;;21.23;14.20;;;7.50;99.90;;;;;;5044234;28;20299;-77
2022/12/25 11:36:31;;;;;;;18.65;13.10;;;7.60;99.90;;;;;;5043935;28;20217;-77
2022/12/25 11:39:04;;;;;;;25.35;14.73;;;7.60;99.90;;;;;;5053084;28;20228;-80
2022/12/25 11:41:33;;;;;;;18.83;13.38;;;7.60;99.90;;;;;;5052861;28;20246;-77
2022/12/25 11:44:03;;;;;;;24.52;13.38;;;7.70;99.90;;;;;;5053049;28;20220;-78
2022/12/25 11:46:39;;;;;;;31.20;19.67;;;7.70;99.90;;;;;;5049852;28;20235;-77
2022/12/25 11:49:10;;;;;;;31.27;17.77;;;7.80;99.90;;;;;;5052257;28;20573;-80
2022/12/25 11:51:40;;;;;;;24.00;16.08;;;7.80;99.90;;;;;;5052034;28;20224;-78
2022/12/25 11:54:17;;;;;;;19.13;14.07;;;7.80;99.90;;;;;;5052747;28;20319;-81
2022/12/25 11:56:44;;;;;;;33.25;19.00;;;7.80;99.90;;;;;;5052049;28;20217;-80
2022/12/25 11:59:19;;;;;;;22.63;13.60;;;7.80;99.90;;;;;;5052159;28;20696;-78
2022/12/25 12:01:51;;;;;;;21.40;13.43;;;7.80;99.90;;;;;;5051364;28;20236;-78
2022/12/25 12:04:25;;;;;;;19.00;13.25;;;7.70;99.90;;;;;;5052584;28;20306;-78
2022/12/25 12:06:58;;;;;;;19.02;13.52;;;7.80;99.90;;;;;;5051761;28;20665;-81
2022/12/25 12:09:39;;;;;;;18.33;13.07;;;7.80;99.90;;;;;;5051889;28;20263;-81
2022/12/25 12:12:11;;;;;;;20.52;13.20;;;7.70;99.90;;;;;;5052333;28;20228;-77
2022/12/25 12:14:49;;;;;;;17.40;12.93;;;7.80;99.90;;;;;;5051777;28;20259;-78
2022/12/25 12:17:18;;;;;;;17.05;13.43;;;7.80;99.90;;;;;;5050951;28;20236;-81
2022/12/25 12:19:45;;;;;;;19.48;12.57;;;7.80;99.90;;;;;;5052184;28;20244;-77
2022/12/25 12:22:25;;;;;;;20.38;14.40;;;7.80;99.90;;;;;;5051953;28;20221;-78
2022/12/25 12:24:56;;;;;;;21.48;13.75;;;7.80;99.90;;;;;;5052101;28;20297;-78
2022/12/25 12:27:26;;;;;;;17.23;13.10;;;7.80;99.90;;;;;;5051951;28;20213;-78
2022/12/25 12:29:57;;;;;;;20.33;14.65;;;7.80;99.90;;;;;;5051959;28;20221;-81
2022/12/25 12:32:35;;;;;;;20.95;14.90;;;7.80;99.90;;;;;;5050700;28;20286;-81
2022/12/25 12:35:09;;;;;;;18.83;15.52;;;7.70;99.90;;;;;;5051850;28;20685;-80
2022/12/25 12:37:40;;;;;;;20.65;14.18;;;7.80;99.90;;;;;;5052059;28;20254;-81
2022/12/25 12:40:23;;;;;;;18.65;15.00;;;7.70;99.90;;;;;;5055055;28;20217;-81
2022/12/25 12:42:51;;;;;;;23.95;13.57;;;7.80;99.90;;;;;;5055595;28;20274;-77
2022/12/25 12:45:22;;;;;;;19.05;12.50;;;7.80;99.90;;;;;;5037777;28;20761;-77
2022/12/25 12:47:51;;;;;;;20.50;12.90;;;7.80;99.90;;;;;;5055865;28;20303;-78
2022/12/25 12:50:36;;;;;;;19.48;12.23;;;7.80;99.90;;;;;;5055152;28;20527;-77
2022/12/25 12:53:27;;;;;;;15.82;12.98;;;7.80;99.90;;;;;;5055511;28;20600;-77
2022/12/25 12:55:54;;;;;;;16.75;11.32;;;7.90;99.90;;;;;;5056027;28;20224;-77
2022/12/25 12:58:33;;;;;;;20.13;14.32;;;7.90;99.90;;;;;;5054797;28;20225;-80
2022/12/25 13:01:18;;;;;;;17.90;13.18;;;7.90;99.90;;;;;;5055634;28;20251;-80
2022/12/25 13:04:08;;;;;;;14.90;11.30;;;7.90;99.90;;;;;;5055816;28;20248;-76
2022/12/25 13:06:41;;;;;;;18.13;9.68;;;7.90;99.90;;;;;;5012486;28;20306;-80
2022/12/25 13:09:24;;;;;;;14.13;10.20;;;7.90;99.90;;;;;;5054938;28;20311;-80
2022/12/25 13:11:51;;;;;;;16.52;10.98;;;7.90;99.90;;;;;;5055134;28;20233;-77
2022/12/25 13:14:20;;;;;;;12.02;9.52;;;7.90;99.90;;;;;;5055386;28;20228;-76
2022/12/25 13:16:51;;;;;;;10.73;9.18;;;8.00;99.90;;;;;;5055165;28;20559;-77
2022/12/25 13:19:21;;;;;;;11.27;9.77;;;8.10;99.90;;;;;;5055908;28;20312;-77
2022/12/25 13:21:54;;;;;;;14.13;9.13;;;8.10;99.90;;;;;;5055570;28;20225;-77
2022/12/25 13:24:24;;;;;;;13.40;10.32;;;8.20;99.90;;;;;;5054814;28;20263;-77
2022/12/25 13:26:51;;;;;;;11.10;9.15;;;8.10;99.90;;;;;;5054875;28;20225;-77
2022/12/25 13:29:35;;;;;;;9.00;7.88;;;8.20;99.90;;;;;;5054658;28;20233;-76
2022/12/25 13:32:08;;;;;;;11.80;8.18;;;8.20;99.90;;;;;;5054213;28;20335;-77
2022/12/25 13:34:42;;;;;;;12.15;8.35;;;8.20;99.90;;;;;;5055134;28;20274;-77
2022/12/25 13:37:13;;;;;;;10.95;8.25;;;8.30;99.90;;;;;;5043184;28;20225;-76
2022/12/25 13:39:48;;;;;;;17.20;8.38;;;8.30;99.90;;;;;;5054953;28;20626;-80
2022/12/25 13:42:19;;;;;;;11.88;9.60;;;8.30;99.90;;;;;;5054369;28;20231;-80
2022/12/25 13:44:49;;;;;;;11.93;8.10;;;8.30;99.90;;;;;;5054976;28;20613;-77
2022/12/25 13:47:26;;;;;;;10.48;6.88;;;8.30;99.90;;;;;;5054846;28;20278;-76
2022/12/25 13:49:55;;;;;;;8.32;6.65;;;8.40;99.90;;;;;;5053369;28;20248;-79
2022/12/25 13:52:33;;;;;;;8.23;7.03;;;8.30;99.90;;;;;;5054562;28;20228;-79
2022/12/25 13:55:03;;;;;;;8.77;6.78;;;8.30;99.90;;;;;;5053576;28;20252;-80
2022/12/25 13:57:36;;;;;;;7.10;5.80;;;8.30;99.90;;;;;;5054606;28;20300;-77
2022/12/25 14:00:07;;;;;;;12.52;8.13;;;8.30;99.90;;;;;;5054393;28;20320;-79
2022/12/25 14:02:39;;;;;;;8.18;7.30;;;8.20;99.90;;;;;;5054696;28;20239;-80
2022/12/25 14:05:23;;;;;;;10.48;9.38;;;8.20;99.90;;;;;;5053842;28;20224;-77
2022/12/25 14:07:52;;;;;;;11.85;8.90;;;8.20;99.90;;;;;;5054500;28;20216;-77
2022/12/25 14:10:21;;;;;;;10.00;8.15;;;8.20;99.90;;;;;;5053763;28;20311;-77
2022/12/25 14:12:50;;;;;;;12.23;8.70;;;8.20;99.90;;;;;;5054614;28;20229;-77
2022/12/25 14:15:20;;;;;;;11.82;7.78;;;8.20;99.90;;;;;;5054283;28;20296;-81
2022/12/25 14:17:48;;;;;;;11.82;7.68;;;8.10;99.90;;;;;;5054297;28;20303;-80
2022/12/25 14:20:23;;;;;;;14.27;8.02;;;8.10;99.90;;;;;;5050652;28;20252;-81
2022/12/25 14:22:52;;;;;;;11.07;9.35;;;8.20;99.90;;;;;;5054136;28;20224;-80
2022/12/25 14:25:22;;;;;;;7.80;7.10;;;8.20;99.90;;;;;;5052991;28;20217;-80
2022/12/25 14:27:50;;;;;;;10.63;7.13;;;8.20;99.90;;;;;;5054325;28;20251;-77
2022/12/25 14:30:19;;;;;;;8.15;7.10;;;8.20;99.90;;;;;;5053030;28;20228;-77
2022/12/25 14:32:50;;;;;;;13.90;8.07;;;8.20;99.90;;;;;;5052929;28;20217;-80
2022/12/25 14:35:18;;;;;;;10.60;8.27;;;8.20;99.90;;;;;;5053899;28;20220;-77
2022/12/25 14:37:46;;;;;;;11.50;8.48;;;8.20;99.90;;;;;;5053774;28;20304;-77
2022/12/25 14:40:25;;;;;;;13.15;9.05;;;8.20;99.90;;;;;;5052699;28;20745;-77
2022/12/25 14:42:56;;;;;;;10.20;9.10;;;8.20;99.90;;;;;;5042514;28;20676;-79
2022/12/25 14:45:29;;;;;;;9.25;8.32;;;8.30;99.90;;;;;;5022022;28;20232;-77
2022/12/25 14:47:58;;;;;;;11.32;9.02;;;8.30;99.90;;;;;;5053117;28;20246;-78